sensor_id;sensor_type;location;lat;lon;timestamp;P1;durP1;ratioP1;P2;durP2;ratioP2
56511;SDS011;42408;53.238;5.686;2024-01-15T00:01:33;11.30;;;3.30;;
56511;SDS011;42408;53.238;5.686;2024-01-15T00:03:59;17.50;;;3.87;;
56511;SDS011;42408;53.238;5.686;2024-01-15T00:06:25;15.20;;;3.80;;
56511;SDS011;42408;53.238;5.686;2024-01-15T00:08:52;17.73;;;4.85;;
56511;SDS011;42408;53.238;5.686;2024-01-15T00:11:17;15.10;;;3.60;;
56511;SDS011;42408;53.238;5.686;2024-01-15T00:13:43;12.03;;;3.10;;
56511;SDS011;42408;53.238;5.686;2024-01-15T00:16:08;12.03;;;3.90;;
56511;SDS011;42408;53.238;5.686;2024-01-15T00:18:35;15.43;;;3.45;;
56511;SDS011;42408;53.238;5.686;2024-01-15T00:21:01;11.40;;;3.10;;
56511;SDS011;42408;53.238;5.686;2024-01-15T00:23:26;15.33;;;3.23;;
56511;SDS011;42408;53.238;5.686;2024-01-15T00:25:52;15.97;;;3.77;;
56511;SDS011;42408;53.238;5.686;2024-01-15T00:28:17;16.90;;;3.60;;
56511;SDS011;42408;53.238;5.686;2024-01-15T00:30:43;12.43;;;3.97;;
56511;SDS011;42408;53.238;5.686;2024-01-15T00:33:09;15.80;;;4.40;;
56511;SDS011;42408;53.238;5.686;2024-01-15T00:35:37;12.40;;;3.42;;
56511;SDS011;42408;53.238;5.686;2024-01-15T00:38:03;4.70;;;1.87;;
56511;SDS011;42408;53.238;5.686;2024-01-15T00:40:28;8.17;;;2.07;;
56511;SDS011;42408;53.238;5.686;2024-01-15T00:42:54;9.47;;;3.00;;
56511;SDS011;42408;53.238;5.686;2024-01-15T00:45:20;10.43;;;2.33;;
56511;SDS011;42408;53.238;5.686;2024-01-15T00:47:45;14.43;;;2.53;;
56511;SDS011;42408;53.238;5.686;2024-01-15T00:50:11;13.90;;;2.03;;
56511;SDS011;42408;53.238;5.686;2024-01-15T00:52:37;5.57;;;2.03;;
56511;SDS011;42408;53.238;5.686;2024-01-15T00:55:02;10.97;;;2.80;;
56511;SDS011;42408;53.238;5.686;2024-01-15T00:57:28;16.47;;;3.10;;
56511;SDS011;42408;53.238;5.686;2024-01-15T00:59:54;12.33;;;3.33;;
56511;SDS011;42408;53.238;5.686;2024-01-15T01:02:19;11.93;;;2.70;;
56511;SDS011;42408;53.238;5.686;2024-01-15T01:04:45;14.70;;;4.23;;
56511;SDS011;42408;53.238;5.686;2024-01-15T01:07:11;15.27;;;3.40;;
56511;SDS011;42408;53.238;5.686;2024-01-15T01:09:36;10.00;;;3.33;;
56511;SDS011;42408;53.238;5.686;2024-01-15T01:12:02;14.63;;;3.33;;
56511;SDS011;42408;53.238;5.686;2024-01-15T01:14:28;10.77;;;3.43;;
56511;SDS011;42408;53.238;5.686;2024-01-15T01:16:53;17.13;;;3.50;;
56511;SDS011;42408;53.238;5.686;2024-01-15T01:19:19;18.27;;;4.93;;
56511;SDS011;42408;53.238;5.686;2024-01-15T01:21:45;23.03;;;4.63;;
56511;SDS011;42408;53.238;5.686;2024-01-15T01:24:10;19.13;;;4.50;;
56511;SDS011;42408;53.238;5.686;2024-01-15T01:26:36;20.87;;;4.23;;
56511;SDS011;42408;53.238;5.686;2024-01-15T01:29:01;14.77;;;4.60;;
56511;SDS011;42408;53.238;5.686;2024-01-15T01:31:27;15.20;;;3.80;;
56511;SDS011;42408;53.238;5.686;2024-01-15T01:33:53;15.03;;;4.00;;
56511;SDS011;42408;53.238;5.686;2024-01-15T01:36:18;18.50;;;4.80;;
56511;SDS011;42408;53.238;5.686;2024-01-15T01:38:44;17.87;;;4.67;;
56511;SDS011;42408;53.238;5.686;2024-01-15T01:41:09;18.83;;;4.97;;
56511;SDS011;42408;53.238;5.686;2024-01-15T01:43:35;20.73;;;4.72;;
56511;SDS011;42408;53.238;5.686;2024-01-15T01:46:01;18.50;;;5.03;;
56511;SDS011;42408;53.238;5.686;2024-01-15T01:48:28;18.55;;;4.70;;
56511;SDS011;42408;53.238;5.686;2024-01-15T01:50:59;17.30;;;4.75;;
56511;SDS011;42408;53.238;5.686;2024-01-15T01:53:26;16.67;;;4.28;;
56511;SDS011;42408;53.238;5.686;2024-01-15T01:55:54;18.48;;;5.10;;
56511;SDS011;42408;53.238;5.686;2024-01-15T01:58:22;20.70;;;5.28;;
56511;SDS011;42408;53.238;5.686;2024-01-15T02:00:48;20.77;;;4.70;;
56511;SDS011;42408;53.238;5.686;2024-01-15T02:03:14;14.57;;;3.88;;
56511;SDS011;42408;53.238;5.686;2024-01-15T02:05:40;17.65;;;4.30;;
56511;SDS011;42408;53.238;5.686;2024-01-15T02:08:08;13.68;;;3.42;;
56511;SDS011;42408;53.238;5.686;2024-01-15T02:10:33;13.90;;;2.90;;
56511;SDS011;42408;53.238;5.686;2024-01-15T02:12:59;14.70;;;4.00;;
56511;SDS011;42408;53.238;5.686;2024-01-15T02:15:25;9.57;;;2.73;;
56511;SDS011;42408;53.238;5.686;2024-01-15T02:20:22;9.93;;;3.13;;
56511;SDS011;42408;53.238;5.686;2024-01-15T02:22:48;15.53;;;4.27;;
56511;SDS011;42408;53.238;5.686;2024-01-15T02:25:14;11.93;;;3.43;;
56511;SDS011;42408;53.238;5.686;2024-01-15T02:27:39;19.07;;;4.87;;
56511;SDS011;42408;53.238;5.686;2024-01-15T02:30:05;15.60;;;4.10;;
56511;SDS011;42408;53.238;5.686;2024-01-15T02:32:33;17.73;;;3.38;;
56511;SDS011;42408;53.238;5.686;2024-01-15T02:34:59;7.87;;;3.10;;
56511;SDS011;42408;53.238;5.686;2024-01-15T02:37:24;7.97;;;2.20;;
56511;SDS011;42408;53.238;5.686;2024-01-15T02:39:50;8.90;;;2.17;;
56511;SDS011;42408;53.238;5.686;2024-01-15T02:42:15;10.90;;;2.63;;
56511;SDS011;42408;53.238;5.686;2024-01-15T02:44:41;11.87;;;3.57;;
56511;SDS011;42408;53.238;5.686;2024-01-15T02:47:06;9.43;;;2.50;;
56511;SDS011;42408;53.238;5.686;2024-01-15T02:49:32;14.60;;;3.23;;
56511;SDS011;42408;53.238;5.686;2024-01-15T02:51:58;17.67;;;3.77;;
56511;SDS011;42408;53.238;5.686;2024-01-15T02:54:23;15.83;;;3.80;;
56511;SDS011;42408;53.238;5.686;2024-01-15T02:56:49;15.07;;;3.73;;
56511;SDS011;42408;53.238;5.686;2024-01-15T02:59:14;14.87;;;3.73;;
56511;SDS011;42408;53.238;5.686;2024-01-15T03:01:40;13.27;;;4.23;;
56511;SDS011;42408;53.238;5.686;2024-01-15T03:04:06;13.67;;;3.23;;
56511;SDS011;42408;53.238;5.686;2024-01-15T03:06:31;13.43;;;3.50;;
56511;SDS011;42408;53.238;5.686;2024-01-15T03:08:57;18.43;;;4.07;;
56511;SDS011;42408;53.238;5.686;2024-01-15T03:11:23;11.73;;;3.47;;
56511;SDS011;42408;53.238;5.686;2024-01-15T03:13:48;15.77;;;3.33;;
56511;SDS011;42408;53.238;5.686;2024-01-15T03:16:14;17.43;;;3.47;;
56511;SDS011;42408;53.238;5.686;2024-01-15T03:18:39;10.43;;;2.53;;
56511;SDS011;42408;53.238;5.686;2024-01-15T03:21:05;14.60;;;2.73;;
56511;SDS011;42408;53.238;5.686;2024-01-15T03:23:31;10.18;;;2.53;;
56511;SDS011;42408;53.238;5.686;2024-01-15T03:25:56;9.17;;;2.73;;
56511;SDS011;42408;53.238;5.686;2024-01-15T03:28:22;14.10;;;3.37;;
56511;SDS011;42408;53.238;5.686;2024-01-15T03:30:48;16.03;;;4.97;;
56511;SDS011;42408;53.238;5.686;2024-01-15T03:33:13;12.57;;;2.90;;
56511;SDS011;42408;53.238;5.686;2024-01-15T03:35:39;8.40;;;2.23;;
56511;SDS011;42408;53.238;5.686;2024-01-15T03:38:04;8.13;;;2.20;;
56511;SDS011;42408;53.238;5.686;2024-01-15T03:40:30;3.90;;;1.60;;
56511;SDS011;42408;53.238;5.686;2024-01-15T03:42:56;8.23;;;2.00;;
56511;SDS011;42408;53.238;5.686;2024-01-15T03:45:21;5.30;;;2.00;;
56511;SDS011;42408;53.238;5.686;2024-01-15T03:47:47;7.23;;;1.70;;
56511;SDS011;42408;53.238;5.686;2024-01-15T03:50:13;7.73;;;2.20;;
56511;SDS011;42408;53.238;5.686;2024-01-15T03:52:38;7.43;;;1.93;;
56511;SDS011;42408;53.238;5.686;2024-01-15T03:55:04;12.37;;;2.90;;
56511;SDS011;42408;53.238;5.686;2024-01-15T03:57:30;10.90;;;3.00;;
56511;SDS011;42408;53.238;5.686;2024-01-15T03:59:56;9.63;;;3.40;;
56511;SDS011;42408;53.238;5.686;2024-01-15T04:02:21;11.33;;;4.00;;
56511;SDS011;42408;53.238;5.686;2024-01-15T04:04:47;11.53;;;2.73;;
56511;SDS011;42408;53.238;5.686;2024-01-15T04:07:12;10.67;;;2.90;;
56511;SDS011;42408;53.238;5.686;2024-01-15T04:09:38;13.07;;;2.80;;
56511;SDS011;42408;53.238;5.686;2024-01-15T04:12:04;9.37;;;3.23;;
56511;SDS011;42408;53.238;5.686;2024-01-15T04:14:30;11.10;;;2.83;;
56511;SDS011;42408;53.238;5.686;2024-01-15T04:16:55;11.17;;;3.00;;
56511;SDS011;42408;53.238;5.686;2024-01-15T04:19:21;9.60;;;2.80;;
56511;SDS011;42408;53.238;5.686;2024-01-15T04:21:46;18.27;;;4.07;;
56511;SDS011;42408;53.238;5.686;2024-01-15T04:24:12;12.37;;;3.20;;
56511;SDS011;42408;53.238;5.686;2024-01-15T04:26:38;8.93;;;2.87;;
56511;SDS011;42408;53.238;5.686;2024-01-15T04:29:03;15.20;;;3.70;;
56511;SDS011;42408;53.238;5.686;2024-01-15T04:31:29;14.13;;;3.60;;
56511;SDS011;42408;53.238;5.686;2024-01-15T04:33:54;10.80;;;2.97;;
56511;SDS011;42408;53.238;5.686;2024-01-15T04:36:20;11.87;;;3.17;;
56511;SDS011;42408;53.238;5.686;2024-01-15T04:38:45;9.73;;;3.10;;
56511;SDS011;42408;53.238;5.686;2024-01-15T04:41:14;8.63;;;2.77;;
56511;SDS011;42408;53.238;5.686;2024-01-15T04:43:40;11.73;;;3.30;;
56511;SDS011;42408;53.238;5.686;2024-01-15T04:46:06;9.63;;;2.77;;
56511;SDS011;42408;53.238;5.686;2024-01-15T04:48:32;9.80;;;2.90;;
56511;SDS011;42408;53.238;5.686;2024-01-15T04:50:58;12.73;;;3.37;;
56511;SDS011;42408;53.238;5.686;2024-01-15T04:53:23;13.73;;;3.37;;
56511;SDS011;42408;53.238;5.686;2024-01-15T04:55:49;16.27;;;3.47;;
56511;SDS011;42408;53.238;5.686;2024-01-15T04:58:15;15.37;;;3.43;;
56511;SDS011;42408;53.238;5.686;2024-01-15T05:00:40;12.77;;;3.47;;
56511;SDS011;42408;53.238;5.686;2024-01-15T05:03:06;16.07;;;4.43;;
56511;SDS011;42408;53.238;5.686;2024-01-15T05:05:31;13.00;;;3.87;;
56511;SDS011;42408;53.238;5.686;2024-01-15T05:07:57;17.70;;;6.13;;
56511;SDS011;42408;53.238;5.686;2024-01-15T05:10:22;17.90;;;4.23;;
56511;SDS011;42408;53.238;5.686;2024-01-15T05:12:48;15.87;;;4.00;;
56511;SDS011;42408;53.238;5.686;2024-01-15T05:15:14;15.87;;;4.27;;
56511;SDS011;42408;53.238;5.686;2024-01-15T05:17:39;14.63;;;4.00;;
56511;SDS011;42408;53.238;5.686;2024-01-15T05:20:05;14.70;;;3.97;;
56511;SDS011;42408;53.238;5.686;2024-01-15T05:24:57;20.05;;;4.13;;
56511;SDS011;42408;53.238;5.686;2024-01-15T05:27:23;12.13;;;3.83;;
56511;SDS011;42408;53.238;5.686;2024-01-15T05:29:49;13.90;;;4.37;;
56511;SDS011;42408;53.238;5.686;2024-01-15T05:32:14;11.77;;;2.97;;
56511;SDS011;42408;53.238;5.686;2024-01-15T05:34:40;12.17;;;3.53;;
56511;SDS011;42408;53.238;5.686;2024-01-15T05:37:05;14.57;;;4.47;;
56511;SDS011;42408;53.238;5.686;2024-01-15T05:39:31;15.60;;;4.40;;
56511;SDS011;42408;53.238;5.686;2024-01-15T05:41:58;21.23;;;4.47;;
56511;SDS011;42408;53.238;5.686;2024-01-15T05:44:24;16.00;;;4.43;;
56511;SDS011;42408;53.238;5.686;2024-01-15T05:46:49;18.20;;;4.50;;
56511;SDS011;42408;53.238;5.686;2024-01-15T05:49:15;13.73;;;4.07;;
56511;SDS011;42408;53.238;5.686;2024-01-15T05:51:40;15.77;;;4.30;;
56511;SDS011;42408;53.238;5.686;2024-01-15T05:54:06;15.20;;;4.10;;
56511;SDS011;42408;53.238;5.686;2024-01-15T05:56:32;17.43;;;5.23;;
56511;SDS011;42408;53.238;5.686;2024-01-15T05:58:57;14.43;;;4.43;;
56511;SDS011;42408;53.238;5.686;2024-01-15T06:01:23;8.73;;;2.90;;
56511;SDS011;42408;53.238;5.686;2024-01-15T06:03:48;8.37;;;2.30;;
56511;SDS011;42408;53.238;5.686;2024-01-15T06:06:14;3.67;;;1.73;;
56511;SDS011;42408;53.238;5.686;2024-01-15T06:08:39;10.17;;;2.00;;
56511;SDS011;42408;53.238;5.686;2024-01-15T06:11:06;7.87;;;2.40;;
56511;SDS011;42408;53.238;5.686;2024-01-15T06:13:31;9.10;;;2.42;;
56511;SDS011;42408;53.238;5.686;2024-01-15T06:15:57;10.47;;;2.47;;
56511;SDS011;42408;53.238;5.686;2024-01-15T06:18:23;6.23;;;2.30;;
56511;SDS011;42408;53.238;5.686;2024-01-15T06:20:48;8.67;;;2.63;;
56511;SDS011;42408;53.238;5.686;2024-01-15T06:23:14;9.17;;;2.40;;
56511;SDS011;42408;53.238;5.686;2024-01-15T06:25:40;10.70;;;2.50;;
56511;SDS011;42408;53.238;5.686;2024-01-15T06:28:05;10.53;;;2.60;;
56511;SDS011;42408;53.238;5.686;2024-01-15T06:30:31;13.90;;;2.90;;
56511;SDS011;42408;53.238;5.686;2024-01-15T06:32:56;11.43;;;3.10;;
56511;SDS011;42408;53.238;5.686;2024-01-15T06:35:22;10.93;;;3.13;;
56511;SDS011;42408;53.238;5.686;2024-01-15T06:37:48;14.57;;;3.53;;
56511;SDS011;42408;53.238;5.686;2024-01-15T06:40:13;14.23;;;3.93;;
56511;SDS011;42408;53.238;5.686;2024-01-15T06:42:40;9.57;;;3.27;;
56511;SDS011;42408;53.238;5.686;2024-01-15T06:45:06;11.10;;;3.33;;
56511;SDS011;42408;53.238;5.686;2024-01-15T06:47:32;11.98;;;3.45;;
56511;SDS011;42408;53.238;5.686;2024-01-15T06:49:58;11.17;;;3.70;;
56511;SDS011;42408;53.238;5.686;2024-01-15T06:52:24;14.33;;;4.20;;
56511;SDS011;42408;53.238;5.686;2024-01-15T06:54:49;16.27;;;3.73;;
56511;SDS011;42408;53.238;5.686;2024-01-15T06:57:15;12.37;;;3.63;;
56511;SDS011;42408;53.238;5.686;2024-01-15T06:59:40;14.63;;;3.70;;
56511;SDS011;42408;53.238;5.686;2024-01-15T07:02:06;14.83;;;3.83;;
56511;SDS011;42408;53.238;5.686;2024-01-15T07:04:32;13.23;;;3.03;;
56511;SDS011;42408;53.238;5.686;2024-01-15T07:06:57;16.03;;;3.87;;
56511;SDS011;42408;53.238;5.686;2024-01-15T07:09:23;11.00;;;3.20;;
56511;SDS011;42408;53.238;5.686;2024-01-15T07:11:49;15.17;;;4.37;;
56511;SDS011;42408;53.238;5.686;2024-01-15T07:14:14;18.17;;;3.83;;
56511;SDS011;42408;53.238;5.686;2024-01-15T07:16:40;18.80;;;3.90;;
56511;SDS011;42408;53.238;5.686;2024-01-15T07:19:06;10.57;;;3.63;;
56511;SDS011;42408;53.238;5.686;2024-01-15T07:21:32;11.85;;;3.63;;
56511;SDS011;42408;53.238;5.686;2024-01-15T07:23:58;10.93;;;3.10;;
56511;SDS011;42408;53.238;5.686;2024-01-15T07:26:23;12.30;;;3.57;;
56511;SDS011;42408;53.238;5.686;2024-01-15T07:28:49;8.37;;;2.40;;
56511;SDS011;42408;53.238;5.686;2024-01-15T07:31:17;6.10;;;1.77;;
56511;SDS011;42408;53.238;5.686;2024-01-15T07:33:44;7.90;;;2.17;;
56511;SDS011;42408;53.238;5.686;2024-01-15T07:36:09;8.27;;;2.13;;
56511;SDS011;42408;53.238;5.686;2024-01-15T07:38:35;8.03;;;3.13;;
56511;SDS011;42408;53.238;5.686;2024-01-15T07:41:00;3.43;;;1.50;;
56511;SDS011;42408;53.238;5.686;2024-01-15T07:43:26;7.70;;;1.90;;
56511;SDS011;42408;53.238;5.686;2024-01-15T07:45:53;5.90;;;1.80;;
56511;SDS011;42408;53.238;5.686;2024-01-15T07:48:18;8.33;;;2.97;;
56511;SDS011;42408;53.238;5.686;2024-01-15T07:50:44;5.23;;;1.80;;
56511;SDS011;42408;53.238;5.686;2024-01-15T07:53:10;9.43;;;2.40;;
56511;SDS011;42408;53.238;5.686;2024-01-15T07:55:35;9.80;;;2.80;;
56511;SDS011;42408;53.238;5.686;2024-01-15T07:58:01;8.30;;;2.50;;
56511;SDS011;42408;53.238;5.686;2024-01-15T08:00:27;9.60;;;3.10;;
56511;SDS011;42408;53.238;5.686;2024-01-15T08:02:52;9.30;;;2.60;;
56511;SDS011;42408;53.238;5.686;2024-01-15T08:05:18;10.80;;;3.00;;
56511;SDS011;42408;53.238;5.686;2024-01-15T08:07:44;9.37;;;3.03;;
56511;SDS011;42408;53.238;5.686;2024-01-15T08:10:09;11.77;;;3.40;;
56511;SDS011;42408;53.238;5.686;2024-01-15T08:12:35;13.73;;;2.83;;
56511;SDS011;42408;53.238;5.686;2024-01-15T08:15:01;12.80;;;3.87;;
56511;SDS011;42408;53.238;5.686;2024-01-15T08:17:26;11.93;;;2.90;;
56511;SDS011;42408;53.238;5.686;2024-01-15T08:22:19;15.13;;;3.28;;
56511;SDS011;42408;53.238;5.686;2024-01-15T08:24:45;10.73;;;3.00;;
56511;SDS011;42408;53.238;5.686;2024-01-15T08:27:10;10.33;;;2.73;;
56511;SDS011;42408;53.238;5.686;2024-01-15T08:29:36;12.67;;;3.40;;
56511;SDS011;42408;53.238;5.686;2024-01-15T08:32:02;10.93;;;2.60;;
56511;SDS011;42408;53.238;5.686;2024-01-15T08:34:27;10.37;;;3.17;;
56511;SDS011;42408;53.238;5.686;2024-01-15T08:36:53;12.50;;;2.70;;
56511;SDS011;42408;53.238;5.686;2024-01-15T08:39:19;9.37;;;2.73;;
56511;SDS011;42408;53.238;5.686;2024-01-15T08:41:44;8.20;;;2.50;;
56511;SDS011;42408;53.238;5.686;2024-01-15T08:44:11;8.40;;;2.58;;
56511;SDS011;42408;53.238;5.686;2024-01-15T08:46:37;11.77;;;3.27;;
56511;SDS011;42408;53.238;5.686;2024-01-15T08:49:03;11.07;;;2.70;;
56511;SDS011;42408;53.238;5.686;2024-01-15T08:51:29;13.47;;;3.47;;
56511;SDS011;42408;53.238;5.686;2024-01-15T08:53:55;11.83;;;2.77;;
56511;SDS011;42408;53.238;5.686;2024-01-15T08:58:47;11.27;;;3.10;;
56511;SDS011;42408;53.238;5.686;2024-01-15T09:01:12;14.30;;;3.43;;
56511;SDS011;42408;53.238;5.686;2024-01-15T09:03:39;10.13;;;2.70;;
56511;SDS011;42408;53.238;5.686;2024-01-15T09:06:07;7.88;;;2.45;;
56511;SDS011;42408;53.238;5.686;2024-01-15T09:08:32;12.47;;;2.80;;
56511;SDS011;42408;53.238;5.686;2024-01-15T09:10:58;11.50;;;2.90;;
56511;SDS011;42408;53.238;5.686;2024-01-15T09:13:24;12.33;;;3.00;;
56511;SDS011;42408;53.238;5.686;2024-01-15T09:15:49;10.03;;;2.37;;
56511;SDS011;42408;53.238;5.686;2024-01-15T09:18:15;9.60;;;2.47;;
56511;SDS011;42408;53.238;5.686;2024-01-15T09:20:41;9.97;;;2.63;;
56511;SDS011;42408;53.238;5.686;2024-01-15T09:23:06;8.40;;;2.30;;
56511;SDS011;42408;53.238;5.686;2024-01-15T09:25:32;5.20;;;2.13;;
56511;SDS011;42408;53.238;5.686;2024-01-15T09:27:57;5.07;;;2.00;;
56511;SDS011;42408;53.238;5.686;2024-01-15T09:30:23;7.57;;;2.40;;
56511;SDS011;42408;53.238;5.686;2024-01-15T09:32:49;13.67;;;2.53;;
56511;SDS011;42408;53.238;5.686;2024-01-15T09:35:14;7.73;;;1.90;;
56511;SDS011;42408;53.238;5.686;2024-01-15T09:37:40;5.10;;;1.30;;
56511;SDS011;42408;53.238;5.686;2024-01-15T09:40:08;6.22;;;1.50;;
56511;SDS011;42408;53.238;5.686;2024-01-15T09:42:37;4.75;;;1.65;;
56511;SDS011;42408;53.238;5.686;2024-01-15T09:45:02;7.70;;;2.10;;
56511;SDS011;42408;53.238;5.686;2024-01-15T09:47:28;7.10;;;2.20;;
56511;SDS011;42408;53.238;5.686;2024-01-15T09:49:55;5.50;;;2.10;;
56511;SDS011;42408;53.238;5.686;2024-01-15T09:52:23;8.40;;;2.20;;
56511;SDS011;42408;53.238;5.686;2024-01-15T09:54:50;7.90;;;2.00;;
56511;SDS011;42408;53.238;5.686;2024-01-15T09:57:16;6.63;;;1.50;;
56511;SDS011;42408;53.238;5.686;2024-01-15T09:59:42;4.10;;;1.60;;
56511;SDS011;42408;53.238;5.686;2024-01-15T10:02:10;4.72;;;1.55;;
56511;SDS011;42408;53.238;5.686;2024-01-15T10:04:39;6.47;;;1.77;;
56511;SDS011;42408;53.238;5.686;2024-01-15T10:07:05;4.57;;;1.47;;
56511;SDS011;42408;53.238;5.686;2024-01-15T10:09:33;2.15;;;1.25;;
56511;SDS011;42408;53.238;5.686;2024-01-15T10:11:58;1.27;;;0.90;;
56511;SDS011;42408;53.238;5.686;2024-01-15T10:14:24;6.10;;;1.30;;
56511;SDS011;42408;53.238;5.686;2024-01-15T10:16:50;7.37;;;1.93;;
56511;SDS011;42408;53.238;5.686;2024-01-15T10:19:18;7.03;;;1.88;;
56511;SDS011;42408;53.238;5.686;2024-01-15T10:21:44;11.37;;;2.57;;
56511;SDS011;42408;53.238;5.686;2024-01-15T10:24:10;10.43;;;2.42;;
56511;SDS011;42408;53.238;5.686;2024-01-15T10:26:37;7.28;;;2.25;;
56511;SDS011;42408;53.238;5.686;2024-01-15T10:29:02;7.33;;;2.80;;
56511;SDS011;42408;53.238;5.686;2024-01-15T10:31:28;7.17;;;2.00;;
56511;SDS011;42408;53.238;5.686;2024-01-15T10:33:54;11.80;;;2.77;;
56511;SDS011;42408;53.238;5.686;2024-01-15T10:36:22;10.63;;;2.88;;
56511;SDS011;42408;53.238;5.686;2024-01-15T10:38:47;9.77;;;2.10;;
56511;SDS011;42408;53.238;5.686;2024-01-15T10:41:13;10.97;;;3.03;;
56511;SDS011;42408;53.238;5.686;2024-01-15T10:43:38;11.93;;;3.60;;
56511;SDS011;42408;53.238;5.686;2024-01-15T10:46:07;7.03;;;1.80;;
56511;SDS011;42408;53.238;5.686;2024-01-15T10:48:34;8.27;;;2.30;;
56511;SDS011;42408;53.238;5.686;2024-01-15T10:51:01;8.20;;;1.70;;
56511;SDS011;42408;53.238;5.686;2024-01-15T10:53:35;8.45;;;1.52;;
56511;SDS011;42408;53.238;5.686;2024-01-15T10:56:05;4.93;;;1.73;;
56511;SDS011;42408;53.238;5.686;2024-01-15T10:58:32;7.35;;;2.17;;
56511;SDS011;42408;53.238;5.686;2024-01-15T11:01:00;10.93;;;2.60;;
56511;SDS011;42408;53.238;5.686;2024-01-15T11:03:26;12.48;;;3.13;;
56511;SDS011;42408;53.238;5.686;2024-01-15T11:05:53;13.07;;;3.60;;
56511;SDS011;42408;53.238;5.686;2024-01-15T11:08:18;18.77;;;3.97;;
56511;SDS011;42408;53.238;5.686;2024-01-15T11:10:50;15.30;;;4.82;;
56511;SDS011;42408;53.238;5.686;2024-01-15T11:16:02;10.35;;;2.88;;
56511;SDS011;42408;53.238;5.686;2024-01-15T11:18:30;8.20;;;2.63;;
56511;SDS011;42408;53.238;5.686;2024-01-15T11:23:46;9.02;;;3.65;;
56511;SDS011;42408;53.238;5.686;2024-01-15T11:29:04;9.50;;;2.78;;
56511;SDS011;42408;53.238;5.686;2024-01-15T11:34:07;11.60;;;3.05;;
56511;SDS011;42408;53.238;5.686;2024-01-15T11:42:00;12.90;;;3.70;;
56511;SDS011;42408;53.238;5.686;2024-01-15T11:44:28;8.90;;;2.70;;
56511;SDS011;42408;53.238;5.686;2024-01-15T11:46:57;8.10;;;2.53;;
56511;SDS011;42408;53.238;5.686;2024-01-15T11:49:27;10.38;;;2.90;;
56511;SDS011;42408;53.238;5.686;2024-01-15T11:52:18;13.48;;;2.60;;
56511;SDS011;42408;53.238;5.686;2024-01-15T11:57:57;7.90;;;1.95;;
56511;SDS011;42408;53.238;5.686;2024-01-15T12:00:25;10.07;;;3.50;;
56511;SDS011;42408;53.238;5.686;2024-01-15T12:02:51;9.53;;;2.03;;
56511;SDS011;42408;53.238;5.686;2024-01-15T12:05:17;8.73;;;2.13;;
56511;SDS011;42408;53.238;5.686;2024-01-15T12:07:46;7.68;;;2.40;;
56511;SDS011;42408;53.238;5.686;2024-01-15T12:10:13;9.75;;;3.05;;
56511;SDS011;42408;53.238;5.686;2024-01-15T12:15:17;11.30;;;2.90;;
56511;SDS011;42408;53.238;5.686;2024-01-15T12:17:43;15.43;;;3.23;;
56511;SDS011;42408;53.238;5.686;2024-01-15T12:20:10;8.63;;;2.63;;
56511;SDS011;42408;53.238;5.686;2024-01-15T12:22:37;9.93;;;3.25;;
56511;SDS011;42408;53.238;5.686;2024-01-15T12:25:03;15.50;;;3.50;;
56511;SDS011;42408;53.238;5.686;2024-01-15T12:27:29;13.20;;;3.73;;
56511;SDS011;42408;53.238;5.686;2024-01-15T12:29:55;8.02;;;2.72;;
56511;SDS011;42408;53.238;5.686;2024-01-15T12:32:20;15.87;;;3.67;;
56511;SDS011;42408;53.238;5.686;2024-01-15T12:34:48;20.42;;;4.25;;
56511;SDS011;42408;53.238;5.686;2024-01-15T12:37:14;10.45;;;3.45;;
56511;SDS011;42408;53.238;5.686;2024-01-15T12:39:42;14.37;;;3.47;;
56511;SDS011;42408;53.238;5.686;2024-01-15T12:42:09;15.30;;;3.30;;
56511;SDS011;42408;53.238;5.686;2024-01-15T12:44:35;12.20;;;3.70;;
56511;SDS011;42408;53.238;5.686;2024-01-15T12:47:03;10.05;;;3.10;;
56511;SDS011;42408;53.238;5.686;2024-01-15T12:51:58;11.25;;;2.90;;
56511;SDS011;42408;53.238;5.686;2024-01-15T12:54:24;10.10;;;2.95;;
56511;SDS011;42408;53.238;5.686;2024-01-15T12:56:50;13.43;;;3.88;;
56511;SDS011;42408;53.238;5.686;2024-01-15T12:59:16;13.27;;;3.63;;
56511;SDS011;42408;53.238;5.686;2024-01-15T13:01:43;14.18;;;3.45;;
56511;SDS011;42408;53.238;5.686;2024-01-15T13:04:09;14.07;;;3.90;;
56511;SDS011;42408;53.238;5.686;2024-01-15T13:06:35;12.82;;;3.45;;
56511;SDS011;42408;53.238;5.686;2024-01-15T13:09:02;16.15;;;3.97;;
56511;SDS011;42408;53.238;5.686;2024-01-15T13:11:30;13.52;;;3.40;;
56511;SDS011;42408;53.238;5.686;2024-01-15T13:13:58;13.13;;;4.15;;
56511;SDS011;42408;53.238;5.686;2024-01-15T13:16:24;13.50;;;3.10;;
56511;SDS011;42408;53.238;5.686;2024-01-15T13:18:53;13.52;;;3.70;;
56511;SDS011;42408;53.238;5.686;2024-01-15T13:21:19;15.87;;;3.77;;
56511;SDS011;42408;53.238;5.686;2024-01-15T13:23:45;14.63;;;2.87;;
56511;SDS011;42408;53.238;5.686;2024-01-15T13:26:10;7.30;;;1.67;;
56511;SDS011;42408;53.238;5.686;2024-01-15T13:28:37;3.50;;;1.27;;
56511;SDS011;42408;53.238;5.686;2024-01-15T13:31:03;2.30;;;1.03;;
56511;SDS011;42408;53.238;5.686;2024-01-15T13:33:29;5.78;;;1.45;;
56511;SDS011;42408;53.238;5.686;2024-01-15T13:35:55;7.82;;;1.88;;
56511;SDS011;42408;53.238;5.686;2024-01-15T13:38:21;5.70;;;2.03;;
56511;SDS011;42408;53.238;5.686;2024-01-15T13:40:46;5.53;;;2.20;;
56511;SDS011;42408;53.238;5.686;2024-01-15T13:43:12;13.03;;;2.90;;
56511;SDS011;42408;53.238;5.686;2024-01-15T13:45:39;13.68;;;2.92;;
56511;SDS011;42408;53.238;5.686;2024-01-15T13:48:08;12.82;;;3.38;;
56511;SDS011;42408;53.238;5.686;2024-01-15T13:50:34;10.13;;;3.57;;
56511;SDS011;42408;53.238;5.686;2024-01-15T13:53:03;12.15;;;3.17;;
56511;SDS011;42408;53.238;5.686;2024-01-15T13:55:29;14.20;;;3.83;;
56511;SDS011;42408;53.238;5.686;2024-01-15T13:57:55;14.55;;;3.90;;
56511;SDS011;42408;53.238;5.686;2024-01-15T14:00:21;15.13;;;3.37;;
56511;SDS011;42408;53.238;5.686;2024-01-15T14:02:48;9.70;;;3.00;;
56511;SDS011;42408;53.238;5.686;2024-01-15T14:05:14;13.37;;;2.83;;
56511;SDS011;42408;53.238;5.686;2024-01-15T14:07:40;8.43;;;2.40;;
56511;SDS011;42408;53.238;5.686;2024-01-15T14:12:33;10.43;;;2.80;;
56511;SDS011;42408;53.238;5.686;2024-01-15T14:14:59;10.80;;;2.03;;
56511;SDS011;42408;53.238;5.686;2024-01-15T14:19:52;5.95;;;1.65;;
56511;SDS011;42408;53.238;5.686;2024-01-15T14:22:18;5.20;;;1.40;;
56511;SDS011;42408;53.238;5.686;2024-01-15T14:24:44;6.13;;;1.40;;
56511;SDS011;42408;53.238;5.686;2024-01-15T14:27:09;5.37;;;1.50;;
56511;SDS011;42408;53.238;5.686;2024-01-15T14:29:35;4.47;;;1.30;;
56511;SDS011;42408;53.238;5.686;2024-01-15T14:32:01;9.43;;;1.57;;
56511;SDS011;42408;53.238;5.686;2024-01-15T14:34:27;8.00;;;1.83;;
56511;SDS011;42408;53.238;5.686;2024-01-15T14:36:52;4.77;;;1.83;;
56511;SDS011;42408;53.238;5.686;2024-01-15T14:39:19;6.85;;;2.45;;
56511;SDS011;42408;53.238;5.686;2024-01-15T14:41:46;7.47;;;1.95;;
56511;SDS011;42408;53.238;5.686;2024-01-15T14:44:12;11.30;;;1.95;;
56511;SDS011;42408;53.238;5.686;2024-01-15T14:46:38;6.07;;;1.87;;
56511;SDS011;42408;53.238;5.686;2024-01-15T14:49:03;6.40;;;2.10;;
56511;SDS011;42408;53.238;5.686;2024-01-15T14:51:30;11.77;;;2.33;;
56511;SDS011;42408;53.238;5.686;2024-01-15T14:53:56;10.93;;;2.53;;
56511;SDS011;42408;53.238;5.686;2024-01-15T14:56:21;9.17;;;2.20;;
56511;SDS011;42408;53.238;5.686;2024-01-15T14:58:47;7.60;;;2.53;;
56511;SDS011;42408;53.238;5.686;2024-01-15T15:01:13;4.55;;;1.80;;
56511;SDS011;42408;53.238;5.686;2024-01-15T15:03:39;7.63;;;1.88;;
56511;SDS011;42408;53.238;5.686;2024-01-15T15:06:05;5.43;;;1.93;;
56511;SDS011;42408;53.238;5.686;2024-01-15T15:08:34;7.45;;;2.13;;
56511;SDS011;42408;53.238;5.686;2024-01-15T15:11:00;6.43;;;2.70;;